Time;durP1;ratioP1;P1;durP2;ratioP2;P2;SDS_P1;SDS_P2;PMS_P1;PMS_P2;Temp;Humidity;BMP_temperature;BMP_pressure;BME280_temperature;BME280_humidity;BME280_pressure;Samples;Min_cycle;Max_cycle;Signal;HPM_P1;HPM_P2
2023/09/02 04:02:18;;;;;;;0.60;0.10;;;17.80;99.90;;;;;;5070059;23;20541;-74
2023/09/02 04:04:46;;;;;;;0.60;0.10;;;17.80;99.90;;;;;;4896587;29;20497;-73
2023/09/02 04:07:14;;;;;;;0.60;0.10;;;17.80;99.90;;;;;;4895824;29;20496;-73
2023/09/02 04:09:43;;;;;;;0.60;0.10;;;;;;;;;;4893957;29;20461;-74
2023/09/02 04:12:11;;;;;;;1.10;0.97;;;18.00;99.90;;;;;;4895253;29;20930;-73
2023/09/02 04:14:39;;;;;;;0.60;0.20;;;18.10;99.90;;;;;;4936749;23;20620;-74
2023/09/02 04:17:07;;;;;;;0.60;0.10;;;17.30;99.90;;;;;;4891843;29;20451;-73
2023/09/02 04:19:39;;;;;;;0.60;0.20;;;18.10;99.90;;;;;;4887709;29;20471;-75
2023/09/02 04:22:06;;;;;;;0.60;0.10;;;18.10;99.90;;;;;;4897745;29;20461;-75
2023/09/02 04:24:34;;;;;;;0.60;0.10;;;18.00;99.90;;;;;;4896203;29;20467;-75
2023/09/02 04:27:02;;;;;;;0.60;0.20;;;18.00;99.90;;;;;;4895401;29;20572;-74
2023/09/02 04:29:30;;;;;;;0.60;0.17;;;18.00;99.90;;;;;;4895372;29;20468;-74
2023/09/02 04:31:58;;;;;;;0.60;0.10;;;18.00;99.90;;;;;;4896139;29;20452;-74
2023/09/02 04:34:26;;;;;;;0.60;0.20;;;18.00;99.90;;;;;;4895772;29;20549;-74
2023/09/02 04:36:56;;;;;;;0.60;0.13;;;18.00;99.90;;;;;;4895057;29;20452;-75
2023/09/02 04:39:24;;;;;;;0.60;0.20;;;18.00;99.90;;;;;;4885958;29;20460;-74
2023/09/02 04:41:51;;;;;;;0.60;0.10;;;18.10;99.90;;;;;;4877953;29;20465;-74
2023/09/02 04:44:19;;;;;;;0.60;0.20;;;18.10;99.90;;;;;;4892718;29;20562;-74
2023/09/02 04:46:47;;;;;;;0.60;0.10;;;18.10;99.90;;;;;;4895404;29;20529;-74
2023/09/02 04:49:15;;;;;;;0.60;0.10;;;18.10;99.90;;;;;;4894700;29;20992;-74
2023/09/02 04:51:43;;;;;;;0.60;0.10;;;18.10;99.90;;;;;;4881229;29;20466;-75
2023/09/02 04:54:14;;;;;;;0.60;0.10;;;18.10;99.90;;;;;;4876871;29;20977;-74
2023/09/02 04:56:42;;;;;;;0.60;0.10;;;18.10;99.90;;;;;;4895746;29;20445;-74
2023/09/02 04:59:10;;;;;;;0.60;0.10;;;18.00;99.90;;;;;;4896413;29;20453;-75
2023/09/02 05:01:37;;;;;;;0.60;0.20;;;18.00;99.90;;;;;;4895845;29;20451;-74
2023/09/02 05:04:05;;;;;;;0.60;0.17;;;18.00;99.90;;;;;;4896633;29;20839;-75
2023/09/02 05:06:33;;;;;;;0.60;0.20;;;18.00;99.90;;;;;;4896993;29;20456;-75
2023/09/02 05:09:01;;;;;;;0.60;0.10;;;18.00;99.90;;;;;;4895024;29;20480;-73
2023/09/02 05:11:30;;;;;;;0.60;0.10;;;18.00;99.90;;;;;;4895384;29;20486;-73
2023/09/02 05:13:58;;;;;;;0.60;0.10;;;18.00;99.90;;;;;;4895418;29;20467;-75
2023/09/02 05:16:26;;;;;;;0.60;0.10;;;18.00;99.90;;;;;;4895770;29;20456;-73
2023/09/02 05:18:55;;;;;;;0.60;0.20;;;18.00;99.90;;;;;;4895598;29;20456;-75
2023/09/02 05:21:23;;;;;;;0.60;0.20;;;18.00;99.90;;;;;;4891861;29;20539;-73
2023/09/02 05:23:52;;;;;;;0.60;0.10;;;18.00;99.90;;;;;;4895368;29;20477;-73
2023/09/02 05:26:20;;;;;;;0.60;0.10;;;18.00;99.90;;;;;;4895508;29;20459;-73
2023/09/02 05:28:50;;;;;;;0.60;0.20;;;17.90;99.90;;;;;;4896520;29;20543;-74
2023/09/02 05:31:18;;;;;;;0.60;0.10;;;17.90;99.90;;;;;;4897167;29;20464;-72
2023/09/02 05:33:46;;;;;;;0.60;0.10;;;18.00;99.90;;;;;;4878206;29;20951;-73
2023/09/02 05:36:14;;;;;;;0.60;0.10;;;18.10;99.90;;;;;;4877822;29;20467;-74
2023/09/02 05:38:42;;;;;;;0.60;0.10;;;18.10;99.90;;;;;;4880914;29;20452;-74
2023/09/02 05:41:10;;;;;;;0.60;0.10;;;18.20;99.90;;;;;;4893774;29;20512;-74
2023/09/02 05:43:38;;;;;;;0.60;0.20;;;18.20;99.90;;;;;;4882112;29;20546;-73
2023/09/02 05:46:07;;;;;;;0.60;0.10;;;18.20;99.90;;;;;;4876788;29;20454;-75
2023/09/02 05:48:35;;;;;;;0.60;0.10;;;18.20;99.90;;;;;;4876948;29;21003;-75
2023/09/02 05:51:03;;;;;;;0.60;0.10;;;18.20;99.90;;;;;;4889787;29;20532;-75
2023/09/02 05:53:31;;;;;;;0.60;0.20;;;;;;;;;;4896627;29;20459;-75
2023/09/02 05:55:59;;;;;;;0.60;0.10;;;18.30;99.90;;;;;;4893751;29;20558;-74
2023/09/02 05:58:27;;;;;;;0.60;0.10;;;18.30;99.90;;;;;;4895640;29;20446;-75
2023/09/02 06:00:58;;;;;;;0.60;0.10;;;18.30;99.90;;;;;;4894458;29;20450;-75
2023/09/02 06:03:29;;;;;;;0.60;0.10;;;;;;;;;;4895375;29;20526;-75
2023/09/02 06:05:57;;;;;;;0.60;0.10;;;18.20;99.90;;;;;;4894936;29;20486;-74
2023/09/02 06:08:25;;;;;;;0.60;0.10;;;19.00;99.90;;;;;;4894809;29;20810;-73
2023/09/02 06:10:57;;;;;;;0.60;0.10;;;18.20;99.90;;;;;;4894186;29;20843;-73
2023/09/02 06:13:26;;;;;;;0.60;0.10;;;;;;;;;;4894684;29;20446;-76
2023/09/02 06:15:58;;;;;;;0.60;0.20;;;18.20;99.90;;;;;;4899359;29;20454;-75
2023/09/02 06:18:28;;;;;;;0.60;0.10;;;18.20;99.90;;;;;;4894437;29;20453;-74
2023/09/02 06:20:56;;;;;;;0.60;0.10;;;18.20;99.90;;;;;;4896786;29;20541;-75
2023/09/02 06:23:25;;;;;;;0.60;0.10;;;18.20;99.90;;;;;;4898048;29;20573;-75
2023/09/02 06:25:56;;;;;;;0.60;0.10;;;18.20;99.90;;;;;;4898381;29;20494;-74
2023/09/02 06:28:25;;;;;;;0.60;0.10;;;18.10;99.90;;;;;;4897624;29;20631;-74
2023/09/02 06:30:53;;;;;;;0.60;0.10;;;18.00;99.90;;;;;;4898184;29;20864;-74
2023/09/02 06:33:22;;;;;;;0.60;0.10;;;18.10;99.90;;;;;;4897863;29;20460;-74
2023/09/02 06:35:52;;;;;;;0.60;0.10;;;18.10;99.90;;;;;;4898519;29;20478;-75
2023/09/02 06:38:20;;;;;;;0.70;0.37;;;18.10;99.90;;;;;;4883174;29;20528;-75
2023/09/02 06:40:48;;;;;;;0.83;0.83;;;18.10;99.90;;;;;;4880001;29;20454;-75
2023/09/02 06:43:16;;;;;;;0.60;0.10;;;18.10;99.90;;;;;;4885602;29;20464;-74
2023/09/02 06:45:46;;;;;;;0.60;0.20;;;18.10;99.90;;;;;;4899402;29;20477;-74
2023/09/02 06:48:14;;;;;;;0.60;0.10;;;18.10;99.90;;;;;;4897091;29;20901;-75
2023/09/02 06:50:46;;;;;;;0.60;0.20;;;18.10;99.90;;;;;;4897893;29;20447;-74
2023/09/02 06:53:15;;;;;;;1.40;1.30;;;18.10;99.90;;;;;;4898014;29;20920;-73
2023/09/02 06:55:43;;;;;;;0.60;0.10;;;18.10;99.90;;;;;;4897058;29;20481;-73
2023/09/02 06:58:11;;;;;;;0.60;0.10;;;18.10;99.90;;;;;;4897136;29;20954;-73
2023/09/02 07:00:40;;;;;;;0.60;0.20;;;;;;;;;;4881032;29;20973;-74
2023/09/02 07:03:08;;;;;;;0.60;0.10;;;18.20;99.90;;;;;;4910375;29;20547;-74
2023/09/02 07:05:38;;;;;;;0.60;0.10;;;18.20;99.90;;;;;;4916044;29;20851;-74
2023/09/02 07:08:06;;;;;;;0.60;0.10;;;18.20;99.90;;;;;;4903364;29;20543;-76
2023/09/02 07:10:36;;;;;;;0.60;0.17;;;18.20;99.90;;;;;;4897617;29;20460;-74
2023/09/02 07:13:04;;;;;;;0.60;0.17;;;18.30;99.90;;;;;;4897449;29;20525;-74
2023/09/02 07:15:34;;;;;;;0.60;0.10;;;18.30;99.90;;;;;;4897045;29;20538;-75
2023/09/02 07:18:03;;;;;;;0.60;0.20;;;18.30;99.90;;;;;;4885574;29;20463;-75
2023/09/02 07:20:36;;;;;;;0.60;0.10;;;18.30;99.90;;;;;;4878841;29;20446;-75
2023/09/02 07:23:05;;;;;;;0.60;0.10;;;18.40;99.90;;;;;;4878061;29;20529;-73
2023/09/02 07:25:34;;;;;;;0.60;0.10;;;18.40;99.90;;;;;;4878010;29;20566;-73
2023/09/02 07:28:02;;;;;;;0.60;0.10;;;18.40;99.90;;;;;;4879237;29;20464;-74
2023/09/02 07:30:30;;;;;;;0.60;0.17;;;18.40;99.90;;;;;;4877864;29;20497;-73
2023/09/02 07:32:58;;;;;;;0.60;0.10;;;18.40;99.90;;;;;;4878011;29;20485;-75
2023/09/02 07:35:27;;;;;;;0.60;0.10;;;18.40;99.90;;;;;;4877831;29;20540;-74
2023/09/02 07:37:56;;;;;;;0.60;0.10;;;18.50;99.90;;;;;;4885801;29;20462;-75
2023/09/02 07:40:24;;;;;;;0.60;0.10;;;18.50;99.90;;;;;;4896774;29;20479;-74
2023/09/02 07:42:53;;;;;;;0.60;0.10;;;18.50;99.90;;;;;;4897535;29;20461;-74
2023/09/02 07:45:21;;;;;;;0.60;0.10;;;;;;;;;;4897244;29;20969;-73
2023/09/02 07:47:49;;;;;;;0.60;0.20;;;18.70;99.90;;;;;;4897405;29;20485;-74
2023/09/02 07:50:18;;;;;;;0.60;0.10;;;;;;;;;;4897110;29;20910;-74
2023/09/02 07:52:46;;;;;;;0.60;0.10;;;18.70;99.90;;;;;;4896849;29;20477;-75
2023/09/02 07:55:14;;;;;;;0.60;0.10;;;18.80;99.90;;;;;;4895917;29;20505;-74
2023/09/02 07:57:45;;;;;;;0.60;0.10;;;18.90;99.90;;;;;;4890245;29;20456;-73
2023/09/02 08:00:15;;;;;;;0.60;0.10;;;18.90;99.90;;;;;;4896618;29;20459;-74
2023/09/02 08:02:43;;;;;;;0.60;0.10;;;18.90;99.90;;;;;;4896729;29;20470;-74
2023/09/02 08:05:11;;;;;;;0.60;0.10;;;18.90;99.90;;;;;;4896040;29;20482;-75
2023/09/02 08:07:40;;;;;;;0.60;0.10;;;18.90;99.90;;;;;;4895700;29;20463;-74
2023/09/02 08:10:08;;;;;;;0.60;0.10;;;18.90;99.90;;;;;;4896084;29;20484;-75
2023/09/02 08:12:37;;;;;;;0.60;0.10;;;;;;;;;;4896064;29;20490;-76
2023/09/02 08:15:06;;;;;;;0.60;0.20;;;19.00;99.90;;;;;;4894452;29;20478;-76
2023/09/02 08:17:38;;;;;;;0.60;0.10;;;19.00;99.90;;;;;;4895850;29;20541;-75
2023/09/02 08:20:10;;;;;;;0.70;0.30;;;19.00;99.90;;;;;;4896517;29;20451;-73
2023/09/02 08:22:42;;;;;;;0.60;0.10;;;19.00;99.90;;;;;;4896104;29;20450;-75
2023/09/02 08:25:11;;;;;;;0.70;0.40;;;19.10;99.90;;;;;;4895657;29;20474;-73
2023/09/02 08:27:39;;;;;;;0.60;0.10;;;19.00;99.90;;;;;;4887450;29;20460;-75
2023/09/02 08:30:08;;;;;;;0.60;0.10;;;19.00;99.90;;;;;;4882891;29;21046;-74
2023/09/02 08:32:37;;;;;;;0.60;0.10;;;19.00;99.90;;;;;;4896852;29;20539;-74
2023/09/02 08:35:06;;;;;;;0.60;0.10;;;19.10;99.90;;;;;;4896229;29;20511;-74
2023/09/02 08:37:34;;;;;;;1.20;0.60;;;19.30;99.90;;;;;;4895393;29;20552;-73
2023/09/02 08:40:03;;;;;;;0.60;0.10;;;19.30;99.90;;;;;;4895810;29;20503;-73
2023/09/02 08:42:34;;;;;;;0.60;0.10;;;19.40;99.90;;;;;;4894936;29;20951;-74
2023/09/02 08:45:06;;;;;;;0.60;0.10;;;19.40;99.90;;;;;;4895326;29;20508;-75
2023/09/02 08:47:35;;;;;;;0.60;0.30;;;19.50;99.90;;;;;;4894864;29;20459;-75
2023/09/02 08:50:06;;;;;;;0.60;0.20;;;19.50;99.90;;;;;;4894433;29;20557;-74
2023/09/02 08:52:34;;;;;;;0.60;0.10;;;19.60;99.90;;;;;;4877088;29;20539;-74
2023/09/02 08:55:03;;;;;;;0.60;0.20;;;19.60;99.90;;;;;;4887113;29;20844;-75
2023/09/02 08:57:33;;;;;;;3.90;1.03;;;19.50;99.90;;;;;;4897582;29;20452;-73
2023/09/02 09:00:01;;;;;;;0.60;0.10;;;19.40;99.90;;;;;;4898652;29;20447;-75
2023/09/02 09:02:30;;;;;;;0.60;0.10;;;19.30;99.90;;;;;;4907668;29;20476;-73
2023/09/02 09:05:03;;;;;;;0.60;0.17;;;19.40;99.90;;;;;;4903076;29;20503;-74
2023/09/02 09:07:33;;;;;;;0.60;0.20;;;19.40;99.90;;;;;;4899423;29;20449;-76
2023/09/02 09:10:01;;;;;;;0.60;0.20;;;19.40;99.90;;;;;;4894868;29;20491;-76
2023/09/02 09:12:33;;;;;;;0.60;0.10;;;19.30;99.90;;;;;;4878272;29;20527;-73
2023/09/02 09:15:03;;;;;;;0.60;0.10;;;19.40;99.90;;;;;;4877295;29;20483;-73
2023/09/02 09:17:31;;;;;;;0.60;0.10;;;19.50;99.90;;;;;;4879508;29;21018;-75
2023/09/02 09:20:00;;;;;;;0.60;0.20;;;19.50;99.90;;;;;;4895893;29;20535;-75
2023/09/02 09:22:28;;;;;;;0.60;0.10;;;19.50;99.90;;;;;;4886890;29;20970;-73
2023/09/02 09:24:58;;;;;;;1.47;1.37;;;19.50;99.90;;;;;;4894457;29;20477;-75
2023/09/02 09:27:26;;;;;;;0.60;0.17;;;19.50;99.90;;;;;;4898624;29;20516;-75
2023/09/02 09:29:55;;;;;;;0.60;0.20;;;19.60;99.90;;;;;;4896096;29;20494;-75
2023/09/02 09:32:23;;;;;;;0.60;0.10;;;19.70;99.90;;;;;;4888406;29;20512;-75
2023/09/02 09:34:51;;;;;;;0.60;0.10;;;19.70;99.90;;;;;;4894431;29;20484;-74
2023/09/02 09:37:19;;;;;;;0.60;0.10;;;19.70;99.90;;;;;;4895784;29;20507;-75
2023/09/02 09:39:51;;;;;;;0.60;0.10;;;19.80;99.90;;;;;;4896228;29;20456;-73
2023/09/02 09:42:34;;;;;;;0.60;0.13;;;19.80;99.90;;;;;;4896326;29;20499;-76
2023/09/02 09:45:03;;;;;;;0.60;0.10;;;19.80;99.90;;;;;;4897667;29;20504;-73
2023/09/02 09:47:31;;;;;;;0.60;0.10;;;19.80;99.90;;;;;;4896411;29;20538;-75
2023/09/02 09:50:13;;;;;;;0.60;0.20;;;19.90;99.90;;;;;;4896009;29;20553;-74
2023/09/02 09:52:42;;;;;;;0.60;0.10;;;19.90;99.90;;;;;;4890233;29;20475;-73
2023/09/02 09:55:23;;;;;;;0.60;0.10;;;20.00;99.90;;;;;;4897888;29;20487;-74
2023/09/02 09:57:55;;;;;;;0.60;0.20;;;20.10;99.90;;;;;;4894161;29;20459;-74
2023/09/02 10:00:23;;;;;;;0.60;0.10;;;20.10;99.90;;;;;;4899978;29;20512;-75
2023/09/02 10:02:52;;;;;;;0.60;0.10;;;20.30;99.90;;;;;;4899722;29;20630;-74
2023/09/02 10:05:27;;;;;;;0.60;0.10;;;20.20;99.90;;;;;;4898595;29;20480;-76
2023/09/02 10:08:00;;;;;;;0.60;0.10;;;20.20;99.90;;;;;;4899351;29;20483;-74
2023/09/02 10:10:30;;;;;;;0.60;0.10;;;20.40;99.90;;;;;;4899208;29;20491;-77
2023/09/02 10:13:00;;;;;;;0.60;0.10;;;20.50;99.90;;;;;;4900482;29;20524;-74
2023/09/02 10:15:30;;;;;;;0.60;0.10;;;;;;;;;;4899761;29;20483;-75
2023/09/02 10:18:00;;;;;;;0.60;0.13;;;20.70;99.90;;;;;;4903200;29;20832;-76
2023/09/02 10:20:32;;;;;;;0.60;0.10;;;20.70;99.90;;;;;;4906204;29;20556;-75
2023/09/02 10:23:05;;;;;;;0.60;0.10;;;20.80;99.90;;;;;;4907972;29;20456;-78
2023/09/02 10:25:41;;;;;;;0.60;0.30;;;20.90;99.90;;;;;;4908430;29;20540;-74
2023/09/02 10:28:14;;;;;;;0.60;0.10;;;21.00;99.90;;;;;;4918525;29;20452;-78
2023/09/02 10:30:47;;;;;;;0.60;0.10;;;21.10;99.90;;;;;;4906877;29;20551;-77
2023/09/02 10:33:21;;;;;;;1.07;0.67;;;21.10;99.90;;;;;;4907886;29;20488;-76
2023/09/02 10:35:57;;;;;;;0.60;0.10;;;21.20;99.90;;;;;;4908235;29;20527;-77
2023/09/02 10:38:28;;;;;;;0.60;0.20;;;21.30;99.90;;;;;;4905866;29;20468;-77
2023/09/02 10:41:02;;;;;;;0.60;0.10;;;21.30;99.90;;;;;;4909653;29;20509;-76
2023/09/02 10:43:32;;;;;;;0.60;0.17;;;21.40;99.90;;;;;;4906711;29;20484;-77
2023/09/02 10:46:00;;;;;;;0.60;0.10;;;21.40;99.90;;;;;;4909496;29;20519;-77
2023/09/02 10:48:29;;;;;;;0.60;0.20;;;21.40;99.90;;;;;;4906879;29;20479;-78
2023/09/02 10:50:57;;;;;;;0.60;0.10;;;21.50;99.90;;;;;;4908706;29;20485;-76
2023/09/02 10:53:56;;;;;;;0.60;0.10;;;21.60;99.90;;;;;;4906502;29;20453;-75
2023/09/02 10:56:28;;;;;;;0.60;0.10;;;21.60;99.90;;;;;;4904232;29;20911;-75
2023/09/02 10:58:58;;;;;;;0.60;0.20;;;22.50;99.90;;;;;;4904094;29;21622;-76
2023/09/02 11:01:29;;;;;;;0.60;0.10;;;21.80;99.90;;;;;;4905298;29;20456;-75
2023/09/02 11:03:57;;;;;;;0.60;0.10;;;21.90;99.90;;;;;;4902713;29;20476;-76
2023/09/02 11:06:25;;;;;;;0.60;0.10;;;22.00;99.90;;;;;;4900578;29;20972;-76
2023/09/02 11:08:54;;;;;;;0.60;0.10;;;22.00;99.90;;;;;;4902810;29;20446;-76
2023/09/02 11:11:22;;;;;;;0.60;0.10;;;22.00;99.90;;;;;;4903504;29;21262;-77
2023/09/02 11:14:22;;;;;;;0.60;0.10;;;22.00;99.90;;;;;;4902401;29;20559;-79
2023/09/02 11:17:28;;;;;;;0.60;0.10;;;22.00;99.90;;;;;;4902503;29;20532;-76
2023/09/02 11:20:00;;;;;;;1.90;1.60;;;22.20;99.90;;;;;;4899023;29;20464;-78
2023/09/02 11:22:46;;;;;;;0.60;0.20;;;22.30;99.90;;;;;;4897957;29;20445;-77
2023/09/02 11:25:25;;;;;;;0.60;0.10;;;22.20;99.90;;;;;;4896526;29;20477;-77
2023/09/02 11:27:55;;;;;;;0.60;0.20;;;22.20;99.90;;;;;;4897828;29;20488;-74
2023/09/02 11:30:25;;;;;;;0.60;0.20;;;22.20;99.90;;;;;;4895978;29;21048;-75
2023/09/02 11:32:54;;;;;;;0.60;0.10;;;22.20;99.90;;;;;;4897617;29;20484;-77
2023/09/02 11:35:28;;;;;;;0.60;0.20;;;22.40;99.90;;;;;;4885453;29;20479;-76
2023/09/02 11:37:56;;;;;;;0.60;0.10;;;22.50;99.90;;;;;;4879004;29;20943;-77
2023/09/02 11:40:26;;;;;;;0.60;0.10;;;22.50;99.90;;;;;;4880890;29;20513;-76
2023/09/02 11:42:55;;;;;;;0.60;0.10;;;22.60;99.90;;;;;;4881605;29;20454;-77
2023/09/02 11:45:24;;;;;;;0.60;0.10;;;22.60;99.90;;;;;;4880445;29;20502;-76
2023/09/02 11:47:53;;;;;;;0.60;0.10;;;22.70;99.90;;;;;;4880873;29;20517;-75
2023/09/02 11:50:25;;;;;;;0.60;0.10;;;22.70;99.90;;;;;;4883596;29;20456;-76
2023/09/02 11:52:54;;;;;;;0.60;0.10;;;22.70;99.90;;;;;;4880971;29;20489;-75
2023/09/02 11:55:24;;;;;;;0.60;0.20;;;22.70;99.90;;;;;;4897556;29;20528;-77
2023/09/02 11:57:53;;;;;;;0.60;0.10;;;22.80;99.90;;;;;;4897379;29;20481;-74
2023/09/02 12:00:23;;;;;;;0.60;0.20;;;22.80;99.90;;;;;;4898066;29;20457;-77
2023/09/02 12:02:55;;;;;;;0.60;0.10;;;23.00;99.90;;;;;;4906553;29;20465;-77
2023/09/02 12:05:23;;;;;;;0.60;0.20;;;23.10;99.90;;;;;;4906416;29;20469;-76
2023/09/02 12:07:54;;;;;;;0.60;0.10;;;23.20;99.90;;;;;;4902547;29;20446;-76
2023/09/02 12:10:26;;;;;;;0.60;0.20;;;23.20;99.90;;;;;;4910637;29;20456;-77
2023/09/02 12:12:54;;;;;;;0.60;0.20;;;23.20;99.90;;;;;;4903867;29;20530;-76
2023/09/02 12:15:22;;;;;;;0.60;0.10;;;23.30;99.90;;;;;;4899927;29;20492;-77
2023/09/02 12:17:51;;;;;;;0.60;0.20;;;23.40;99.90;;;;;;4897426;29;20520;-75
2023/09/02 12:20:19;;;;;;;0.60;0.10;;;23.40;99.90;;;;;;4898750;29;20538;-76
2023/09/02 12:22:47;;;;;;;0.60;0.10;;;23.40;99.90;;;;;;4885570;29;20446;-76
2023/09/02 12:25:18;;;;;;;0.60;0.20;;;23.40;99.90;;;;;;4895642;29;20550;-76
2023/09/02 12:27:47;;;;;;;0.60;0.10;;;23.40;99.90;;;;;;4901901;29;20473;-76
2023/09/02 12:30:25;;;;;;;0.60;0.10;;;23.40;99.90;;;;;;4902215;29;20522;-76
2023/09/02 12:32:57;;;;;;;0.60;0.10;;;23.40;99.90;;;;;;4900013;29;20825;-76
2023/09/02 12:35:25;;;;;;;0.60;0.20;;;23.50;99.90;;;;;;4887506;29;20557;-75
2023/09/02 12:38:01;;;;;;;0.60;0.10;;;23.50;99.90;;;;;;4882849;29;20450;-75
2023/09/02 12:40:29;;;;;;;0.60;0.10;;;23.60;99.90;;;;;;4882485;29;20456;-75
2023/09/02 12:42:58;;;;;;;2.13;0.40;;;23.70;99.90;;;;;;4884568;29;20473;-75
2023/09/02 12:45:31;;;;;;;0.60;0.20;;;23.70;99.90;;;;;;4895854;29;20553;-76
2023/09/02 12:48:02;;;;;;;0.60;0.20;;;23.70;99.90;;;;;;4882466;29;20461;-75
2023/09/02 12:50:31;;;;;;;0.60;0.10;;;23.70;99.90;;;;;;4881203;29;20889;-78
2023/09/02 12:53:01;;;;;;;0.60;0.20;;;23.70;99.90;;;;;;4880845;29;20485;-76
2023/09/02 12:55:30;;;;;;;0.60;0.17;;;23.90;99.90;;;;;;4881333;29;20474;-76
2023/09/02 12:58:01;;;;;;;0.60;0.10;;;;;;;;;;4881806;29;20454;-75
2023/09/02 13:00:30;;;;;;;0.60;0.10;;;23.90;99.90;;;;;;4899708;29;20461;-77
2023/09/02 13:02:58;;;;;;;0.60;0.20;;;24.00;99.90;;;;;;4900404;29;20801;-77
2023/09/02 13:05:27;;;;;;;0.63;0.20;;;24.10;99.90;;;;;;4899037;29;20469;-74
2023/09/02 13:07:55;;;;;;;0.60;0.10;;;24.10;99.90;;;;;;4893959;29;20549;-76
2023/09/02 13:10:24;;;;;;;0.60;0.10;;;24.10;99.90;;;;;;4880714;29;20461;-76
2023/09/02 13:12:53;;;;;;;0.70;0.10;;;24.20;99.90;;;;;;4881702;29;20568;-76
2023/09/02 13:15:24;;;;;;;0.60;0.10;;;24.20;99.90;;;;;;4883189;29;20506;-76
2023/09/02 13:17:53;;;;;;;0.70;0.20;;;24.30;99.90;;;;;;4885266;29;20987;-77
2023/09/02 13:20:21;;;;;;;0.60;0.10;;;24.40;99.90;;;;;;4901503;29;20452;-76
2023/09/02 13:22:51;;;;;;;0.70;0.10;;;24.40;99.90;;;;;;4901810;29;20462;-75
2023/09/02 13:25:19;;;;;;;0.70;0.20;;;24.50;99.90;;;;;;4901225;29;20823;-75
2023/09/02 13:27:47;;;;;;;0.60;0.10;;;23.60;99.90;;;;;;4896439;29;20885;-74
2023/09/02 13:30:17;;;;;;;0.60;0.10;;;24.50;99.90;;;;;;4896441;29;20455;-74
2023/09/02 13:32:45;;;;;;;0.70;0.10;;;24.40;99.90;;;;;;4904242;29;20541;-76
2023/09/02 13:35:16;;;;;;;0.70;0.20;;;24.30;99.90;;;;;;4904146;29;20488;-75
2023/09/02 13:37:48;;;;;;;0.60;0.20;;;24.30;99.90;;;;;;4903712;29;20998;-76
2023/09/02 13:40:36;;;;;;;0.70;0.17;;;24.40;99.90;;;;;;4883642;29;20470;-76
2023/09/02 13:43:07;;;;;;;0.70;0.20;;;24.50;99.90;;;;;;4886421;29;20446;-75
2023/09/02 13:45:37;;;;;;;0.70;0.20;;;24.50;99.90;;;;;;4883123;29;20553;-75
2023/09/02 13:48:07;;;;;;;0.60;0.10;;;24.60;99.90;;;;;;4883239;29;20453;-76
2023/09/02 13:50:37;;;;;;;0.67;0.10;;;24.70;99.90;;;;;;4907829;29;20453;-78
2023/09/02 13:53:05;;;;;;;0.70;0.30;;;24.70;99.90;;;;;;4902037;29;20544;-76
2023/09/02 13:55:39;;;;;;;0.60;0.20;;;24.60;99.90;;;;;;4900948;29;20472;-75
2023/09/02 13:58:07;;;;;;;0.70;0.10;;;24.60;99.90;;;;;;4897798;29;20472;-77
2023/09/02 14:00:37;;;;;;;0.70;0.10;;;24.50;99.90;;;;;;4880116;29;20500;-77
2023/09/02 14:03:19;;;;;;;0.70;0.13;;;24.50;99.90;;;;;;4880983;29;20450;-74
2023/09/02 14:05:49;;;;;;;0.60;0.10;;;24.50;99.90;;;;;;4880932;29;20470;-76
2023/09/02 14:08:19;;;;;;;0.60;0.10;;;24.50;99.90;;;;;;4881545;29;20495;-75
2023/09/02 14:10:49;;;;;;;0.70;0.20;;;24.50;99.90;;;;;;4896526;29;20516;-75
2023/09/02 14:13:17;;;;;;;0.60;0.10;;;24.70;99.90;;;;;;4898982;29;20485;-78
2023/09/02 14:15:46;;;;;;;0.70;0.10;;;24.80;99.90;;;;;;4899762;29;20492;-76
2023/09/02 14:18:14;;;;;;;0.70;0.10;;;24.90;99.90;;;;;;4898937;29;20526;-76
2023/09/02 14:20:42;;;;;;;0.67;0.13;;;25.00;99.90;;;;;;4901141;29;20919;-76
2023/09/02 14:23:10;;;;;;;0.70;0.10;;;25.10;99.90;;;;;;4901033;29;20441;-77
2023/09/02 14:25:38;;;;;;;0.60;0.10;;;25.20;99.90;;;;;;4900744;29;20903;-76
2023/09/02 14:28:07;;;;;;;0.70;0.20;;;25.20;99.90;;;;;;4892763;29;20462;-77
2023/09/02 14:30:35;;;;;;;0.70;0.10;;;25.20;99.90;;;;;;4881521;29;20464;-77
2023/09/02 14:33:06;;;;;;;0.70;0.10;;;24.90;99.90;;;;;;4895349;29;20525;-76
2023/09/02 14:35:34;;;;;;;0.70;0.10;;;24.90;99.90;;;;;;4900570;29;20482;-76
2023/09/02 14:38:03;;;;;;;0.70;0.20;;;24.80;99.90;;;;;;4894072;29;20545;-77
2023/09/02 14:40:31;;;;;;;0.70;0.10;;;24.80;99.90;;;;;;4880648;29;20511;-76
2023/09/02 14:42:59;;;;;;;0.60;0.20;;;24.80;99.90;;;;;;4899128;29;20457;-77
2023/09/02 14:45:31;;;;;;;0.70;0.10;;;24.80;99.90;;;;;;4904674;29;20469;-75
2023/09/02 14:48:00;;;;;;;0.70;0.10;;;24.80;99.90;;;;;;4900015;29;20461;-76
2023/09/02 14:50:28;;;;;;;0.60;0.10;;;24.90;99.90;;;;;;4906829;29;20462;-75
2023/09/02 14:52:57;;;;;;;0.70;0.17;;;25.00;99.90;;;;;;4916806;29;20469;-75
2023/09/02 14:55:26;;;;;;;0.67;0.20;;;25.10;99.90;;;;;;4913862;29;20556;-75
2023/09/02 14:57:55;;;;;;;0.70;0.20;;;25.20;99.90;;;;;;4923295;29;20462;-73
2023/09/02 15:00:24;;;;;;;0.70;0.10;;;25.30;99.90;;;;;;4904676;29;20485;-78
2023/09/02 15:02:54;;;;;;;0.70;0.10;;;25.40;99.90;;;;;;4903661;29;20446;-76
2023/09/02 15:05:26;;;;;;;0.70;0.10;;;25.50;99.90;;;;;;4914782;29;21028;-77
2023/09/02 15:07:57;;;;;;;0.70;0.10;;;25.50;99.90;;;;;;4899391;29;20453;-75
2023/09/02 15:10:29;;;;;;;0.70;0.10;;;25.70;99.90;;;;;;4901135;29;20841;-75
2023/09/02 15:12:59;;;;;;;0.70;0.20;;;25.70;99.90;;;;;;4898087;29;20485;-75
2023/09/02 15:15:38;;;;;;;0.70;0.20;;;25.70;99.90;;;;;;4898415;29;20477;-76
2023/09/02 15:18:16;;;;;;;0.70;0.10;;;25.70;99.90;;;;;;4899954;29;20449;-77
2023/09/02 15:20:44;;;;;;;0.70;0.20;;;25.80;99.90;;;;;;4891067;29;20505;-78
2023/09/02 15:23:12;;;;;;;0.70;0.10;;;;;;;;;;4880100;29;20449;-76
2023/09/02 15:25:40;;;;;;;0.70;0.10;;;25.40;99.90;;;;;;4880187;29;20478;-74
2023/09/02 15:28:10;;;;;;;0.70;0.10;;;26.00;99.90;;;;;;4881097;29;20501;-76
2023/09/02 15:30:40;;;;;;;0.70;0.10;;;26.00;99.90;;;;;;4894788;29;20793;-75
2023/09/02 15:33:10;;;;;;;0.70;0.10;;;26.10;99.90;;;;;;4901694;29;20481;-76
2023/09/02 15:35:39;;;;;;;0.70;0.20;;;26.00;99.90;;;;;;4904286;29;20473;-75
2023/09/02 15:38:14;;;;;;;0.70;0.10;;;26.10;99.90;;;;;;4904395;29;20453;-76
2023/09/02 15:40:43;;;;;;;0.70;0.20;;;26.30;99.90;;;;;;4907346;29;20449;-75
2023/09/02 15:43:11;;;;;;;0.80;0.67;;;;;;;;;;4903765;29;20879;-75
2023/09/02 15:45:40;;;;;;;0.70;0.20;;;26.40;99.90;;;;;;4883913;29;20891;-75
2023/09/02 15:48:10;;;;;;;0.70;0.20;;;26.40;99.90;;;;;;4884068;29;20466;-75
2023/09/02 15:50:38;;;;;;;0.70;0.10;;;26.50;99.90;;;;;;4885433;29;20456;-75
2023/09/02 15:53:06;;;;;;;0.70;0.17;;;26.50;99.90;;;;;;4889377;29;20488;-76
2023/09/02 15:55:34;;;;;;;0.70;0.10;;;26.40;99.90;;;;;;4905829;29;21069;-75
2023/09/02 15:58:02;;;;;;;0.70;0.10;;;24.70;99.90;;;;;;4905525;29;20501;-74
2023/09/02 16:00:30;;;;;;;0.70;0.10;;;26.20;99.90;;;;;;4904587;29;20450;-77
2023/09/02 16:02:58;;;;;;;0.70;0.10;;;26.20;99.90;;;;;;4905795;29;20477;-75
2023/09/02 16:05:31;;;;;;;0.70;0.10;;;26.00;99.90;;;;;;4902288;29;20525;-75
2023/09/02 16:08:00;;;;;;;0.70;0.10;;;25.90;99.90;;;;;;4905144;29;20457;-76
2023/09/02 16:10:28;;;;;;;0.70;0.20;;;25.80;99.90;;;;;;4903810;29;20513;-75
2023/09/02 16:12:56;;;;;;;0.70;0.10;;;25.70;99.90;;;;;;4903886;29;20778;-74
2023/09/02 16:15:25;;;;;;;0.70;0.20;;;25.70;99.90;;;;;;4902592;29;20505;-75
2023/09/02 16:17:53;;;;;;;0.70;0.20;;;25.60;99.90;;;;;;4902990;29;20457;-76
2023/09/02 16:20:22;;;;;;;0.70;0.10;;;25.50;99.90;;;;;;4902917;29;20988;-75
2023/09/02 16:22:51;;;;;;;0.70;0.10;;;;;;;;;;4907985;29;20460;-77
2023/09/02 16:25:20;;;;;;;0.70;0.10;;;24.30;99.90;;;;;;4897630;29;20525;-76
2023/09/02 16:27:48;;;;;;;0.70;0.20;;;25.00;99.90;;;;;;4898940;29;20509;-75
2023/09/02 16:30:16;;;;;;;0.80;0.40;;;25.10;99.90;;;;;;4898026;29;20530;-74
2023/09/02 16:32:43;;;;;;;0.70;0.10;;;24.90;99.90;;;;;;4899292;29;20454;-74
2023/09/02 16:35:17;;;;;;;0.70;0.10;;;24.80;99.90;;;;;;4899588;29;20489;-76
2023/09/02 16:37:47;;;;;;;0.70;0.10;;;24.80;99.90;;;;;;4898050;29;20488;-75
2023/09/02 16:40:17;;;;;;;0.70;0.20;;;24.80;99.90;;;;;;4900215;29;20485;-74
2023/09/02 16:42:46;;;;;;;0.70;0.10;;;24.80;99.90;;;;;;4901968;29;20479;-75
2023/09/02 16:45:15;;;;;;;0.70;0.10;;;24.80;99.90;;;;;;4900009;29;20727;-76
2023/09/02 16:47:46;;;;;;;0.90;0.40;;;24.90;99.90;;;;;;4899157;29;20449;-76
2023/09/02 16:50:15;;;;;;;0.70;0.10;;;24.90;99.90;;;;;;4899565;29;20481;-76
2023/09/02 16:52:45;;;;;;;0.70;0.20;;;24.90;99.90;;;;;;4899065;29;20503;-76
2023/09/02 16:55:16;;;;;;;0.70;0.13;;;;;;;;;;4898621;29;20512;-76
2023/09/02 16:57:46;;;;;;;0.70;0.10;;;24.90;99.90;;;;;;4897909;29;20453;-75
2023/09/02 17:00:16;;;;;;;0.70;0.10;;;24.90;99.90;;;;;;4898586;29;20480;-74
2023/09/02 17:02:45;;;;;;;0.70;0.10;;;24.80;99.90;;;;;;4883974;29;20460;-75
2023/09/02 17:05:16;;;;;;;0.70;0.20;;;24.70;99.90;;;;;;4914982;29;20511;-76